Time;durP1;ratioP1;P1;durP2;ratioP2;P2;SDS_P1;SDS_P2;PMS_P1;PMS_P2;Temp;Humidity;BMP_temperature;BMP_pressure;BME280_temperature;BME280_humidity;BME280_pressure;Samples;Min_cycle;Max_cycle;Signal;HPM_P1;HPM_P2
2022/04/30 00:00:35;;;;;;;8.70;6.50;;;;;;;;;;5074679;28;20522;-50
2022/04/30 00:03:01;;;;;;;6.00;5.03;;;;;;;;;;5074019;28;20459;-51
2022/04/30 00:05:32;;;;;;;7.10;5.83;;;;;;;;;;5074599;28;20839;-50
2022/04/30 00:07:59;;;;;;;7.40;5.23;;;;;;;;;;5074574;28;20432;-52
2022/04/30 00:10:25;;;;;;;8.60;5.77;;;;;;;;;;5074607;28;20445;-51
2022/04/30 00:12:52;;;;;;;6.43;5.20;;;;;;;;;;5073921;28;20408;-50
2022/04/30 00:15:19;;;;;;;7.07;5.33;;;;;;;;;;5074449;28;20880;-50
2022/04/30 00:17:44;;;;;;;6.23;5.20;;;;;;;;;;5074295;28;20873;-50
2022/04/30 00:20:10;;;;;;;6.93;5.70;;;;;;;;;;5074310;28;20415;-50
2022/04/30 00:22:36;;;;;;;13.23;5.93;;;;;;;;;;5073976;28;20456;-50
2022/04/30 00:25:02;;;;;;;8.30;6.43;;;;;;;;;;5074335;28;20779;-51
2022/04/30 00:27:29;;;;;;;8.13;5.43;;;;;;;;;;5074131;28;20440;-50
2022/04/30 00:29:55;;;;;;;11.83;5.60;;;;;;;;;;5074110;28;20399;-51
2022/04/30 00:32:22;;;;;;;8.17;5.60;;;;;;;;;;5073481;28;20812;-50
2022/04/30 00:34:48;;;;;;;7.30;5.93;;;;;;;;;;5074098;28;20435;-50
2022/04/30 00:37:14;;;;;;;9.93;6.33;;;;;;;;;;5074074;28;20403;-50
2022/04/30 00:39:39;;;;;;;7.87;5.67;;;;;;;;;;5073901;28;20461;-50
2022/04/30 00:42:06;;;;;;;6.20;4.80;;;;;;;;;;5073296;28;20438;-51
2022/04/30 00:44:32;;;;;;;8.40;5.83;;;;;;;;;;5073798;28;20404;-51
2022/04/30 00:46:57;;;;;;;8.03;5.33;;;;;;;;;;5073793;28;20478;-51
2022/04/30 00:49:23;;;;;;;8.30;5.83;;;;;;;;;;5073764;28;20424;-51
2022/04/30 00:51:50;;;;;;;6.80;5.50;;;;;;;;;;5072974;28;20447;-54
2022/04/30 00:54:20;;;;;;;6.77;5.53;;;;;;;;;;5074049;28;20392;-51
2022/04/30 00:56:48;;;;;;;10.00;5.67;;;;;;;;;;5073657;28;20434;-51
2022/04/30 00:59:18;;;;;;;6.30;5.47;;;;;;;;;;5073528;28;20416;-53
2022/04/30 01:01:45;;;;;;;8.33;5.47;;;;;;;;;;5072201;28;20468;-53
2022/04/30 01:04:11;;;;;;;5.70;5.10;;;;;;;;;;5072938;28;20411;-50
2022/04/30 01:06:56;;;;;;;9.30;6.00;;;;;;;;;;5073210;28;20457;-50
2022/04/30 01:09:23;;;;;;;6.30;5.70;;;;;;;;;;5072549;28;20396;-50
2022/04/30 01:11:52;;;;;;;8.77;5.80;;;;;;;;;;5072703;28;20423;-50
2022/04/30 01:14:19;;;;;;;8.10;5.43;;;;;;;;;;5073237;28;20902;-50
2022/04/30 01:16:46;;;;;;;8.80;5.90;;;;;;;;;;5073557;28;20401;-50
2022/04/30 01:19:18;;;;;;;6.97;6.27;;;;;;;;;;5073221;28;20409;-50
2022/04/30 01:21:46;;;;;;;7.87;6.23;;;;;;;;;;5072570;28;20499;-50
2022/04/30 01:24:12;;;;;;;8.97;6.03;;;;;;;;;;5073094;28;20456;-53
2022/04/30 01:26:38;;;;;;;8.93;6.23;;;;;;;;;;5073098;28;20562;-53
2022/04/30 01:29:04;;;;;;;9.67;5.63;;;;;;;;;;5073054;28;20800;-50
2022/04/30 01:39:45;;;;;;;7.40;5.60;;;;;;;;;;5072738;28;20480;-50
2022/04/30 01:42:14;;;;;;;5.37;4.90;;;;;;;;;;5072225;28;21051;-50
2022/04/30 01:44:42;;;;;;;5.83;5.23;;;;;;;;;;5072727;28;20428;-50
2022/04/30 01:47:08;;;;;;;6.90;5.23;;;;;;;;;;5072640;28;20453;-51
2022/04/30 01:49:34;;;;;;;6.73;6.07;;;;;;;;;;5072584;28;20423;-51
2022/04/30 01:52:06;;;;;;;7.33;5.63;;;;;;;;;;5071281;28;21028;-52
2022/04/30 01:54:32;;;;;;;6.53;5.43;;;;;;;;;;5072735;28;20408;-50
2022/04/30 01:56:58;;;;;;;6.97;5.23;;;;;;;;;;5072434;28;20767;-50
2022/04/30 01:59:24;;;;;;;8.97;5.27;;;;;;;;;;5072367;28;20500;-50
2022/04/30 02:01:50;;;;;;;5.93;4.70;;;;;;;;;;5071772;28;20435;-50
2022/04/30 02:04:16;;;;;;;5.33;4.83;;;;;;;;;;5072456;28;20405;-50
2022/04/30 02:06:45;;;;;;;8.03;6.90;;;;;;;;;;5072246;28;20451;-50
2022/04/30 02:09:11;;;;;;;7.57;5.73;;;;;;;;;;5072249;28;20888;-53
2022/04/30 02:11:38;;;;;;;7.93;6.10;;;;;;;;;;5071654;28;20443;-53
2022/04/30 02:14:05;;;;;;;12.45;5.80;;;;;;;;;;5072158;28;20393;-50
2022/04/30 02:16:31;;;;;;;9.40;5.90;;;;;;;;;;5072214;28;20176;-50
2022/04/30 02:18:58;;;;;;;7.03;6.33;;;;;;;;;;5072113;28;20396;-50
2022/04/30 02:21:25;;;;;;;8.03;6.17;;;;;;;;;;5071522;28;20541;-52
2022/04/30 02:23:56;;;;;;;5.80;5.30;;;;;;;;;;5071995;28;20471;-50
2022/04/30 02:26:25;;;;;;;8.53;4.80;;;;;;;;;;5071984;28;20400;-53
2022/04/30 02:28:51;;;;;;;9.37;5.77;;;;;;;;;;5071864;28;20409;-50
2022/04/30 02:31:22;;;;;;;6.20;5.20;;;;;;;;;;5071456;28;20400;-51
2022/04/30 02:33:48;;;;;;;6.82;5.03;;;;;;;;;;5071872;28;20784;-50
2022/04/30 02:36:15;;;;;;;5.57;5.00;;;;;;;;;;5071890;28;20167;-51
2022/04/30 02:38:42;;;;;;;10.17;5.40;;;;;;;;;;5071957;28;20491;-50
2022/04/30 02:41:08;;;;;;;6.68;5.38;;;;;;;;;;5071317;28;20468;-52
2022/04/30 02:43:34;;;;;;;7.60;5.10;;;;;;;;;;5071788;28;20816;-51
2022/04/30 02:46:00;;;;;;;5.73;5.13;;;;;;;;;;5071861;28;20245;-54
2022/04/30 02:48:26;;;;;;;7.17;4.67;;;;;;;;;;5071739;28;20456;-50
2022/04/30 02:50:58;;;;;;;8.23;5.80;;;;;;;;;;5071221;28;20393;-50
2022/04/30 02:53:24;;;;;;;10.20;5.00;;;;;;;;;;5071770;28;20508;-51
2022/04/30 02:55:49;;;;;;;5.97;5.00;;;;;;;;;;5071748;28;20484;-50
2022/04/30 03:01:00;;;;;;;8.00;6.10;;;;;;;;;;5071094;28;20486;-50
2022/04/30 03:03:29;;;;;;;6.77;5.10;;;;;;;;;;5071682;28;20503;-50
2022/04/30 03:05:56;;;;;;;6.32;4.50;;;;;;;;;;5075932;28;20516;-55
2022/04/30 03:08:24;;;;;;;6.45;4.90;;;;;;;;;;5075543;28;20190;-53
2022/04/30 03:10:53;;;;;;;5.95;5.35;;;;;;;;;;5075041;28;20173;-53
2022/04/30 03:13:19;;;;;;;6.45;5.10;;;;;;;;;;5075616;28;20189;-53
2022/04/30 03:15:47;;;;;;;5.90;5.13;;;;;;;;;;5075653;28;20204;-54
2022/04/30 03:23:31;;;;;;;8.32;5.82;;;;;;;;;;5075418;28;20214;-54
2022/04/30 03:25:57;;;;;;;6.18;5.57;;;;;;;;;;5075437;28;20174;-53
2022/04/30 03:28:23;;;;;;;5.53;5.03;;;;;;;;;;5075196;28;20194;-52
2022/04/30 03:30:49;;;;;;;8.10;4.93;;;;;;;;;;5074635;28;20396;-53
2022/04/30 03:33:15;;;;;;;5.93;4.68;;;;;;;;;;5075091;28;20440;-53
2022/04/30 03:35:42;;;;;;;7.65;5.55;;;;;;;;;;5074070;28;20609;-52
2022/04/30 03:38:09;;;;;;;6.30;5.15;;;;;;;;;;5075132;28;20177;-53
2022/04/30 03:40:35;;;;;;;5.57;4.18;;;;;;;;;;5075924;28;20231;-52
2022/04/30 03:43:02;;;;;;;6.32;5.70;;;;;;;;;;5074533;28;20193;-51
2022/04/30 03:45:28;;;;;;;7.90;5.30;;;;;;;;;;5075144;28;20208;-51
2022/04/30 03:47:54;;;;;;;6.50;4.53;;;;;;;;;;5075004;28;20463;-52
2022/04/30 03:50:20;;;;;;;7.70;4.63;;;;;;;;;;5074921;28;20405;-52
2022/04/30 03:52:46;;;;;;;5.60;4.93;;;;;;;;;;5074148;28;20444;-51
2022/04/30 03:55:16;;;;;;;5.87;4.50;;;;;;;;;;5075009;28;20159;-51
2022/04/30 03:57:42;;;;;;;6.53;4.97;;;;;;;;;;5074908;28;20405;-51
2022/04/30 04:00:09;;;;;;;6.85;5.30;;;;;;;;;;5075176;28;20401;-51
2022/04/30 04:02:36;;;;;;;4.70;4.30;;;;;;;;;;5074100;28;20586;-51
2022/04/30 04:05:02;;;;;;;6.00;5.47;;;;;;;;;;5074670;28;20173;-52
2022/04/30 04:07:30;;;;;;;12.73;6.77;;;;;;;;;;5074731;28;20448;-51
2022/04/30 04:09:56;;;;;;;8.40;5.60;;;;;;;;;;5074593;28;20888;-52
2022/04/30 04:12:22;;;;;;;6.00;5.00;;;;;;;;;;5073947;28;20479;-52
2022/04/30 04:17:38;;;;;;;7.50;5.03;;;;;;;;;;5074551;28;20911;-52
2022/04/30 04:20:06;;;;;;;8.47;5.60;;;;;;;;;;5074450;28;20220;-51
2022/04/30 04:22:32;;;;;;;7.40;5.37;;;;;;;;;;5072860;28;20920;-51
2022/04/30 04:27:42;;;;;;;7.57;6.33;;;;;;;;;;5073647;28;20467;-53
2022/04/30 04:30:08;;;;;;;7.73;5.17;;;;;;;;;;5073763;28;20873;-54
2022/04/30 04:32:34;;;;;;;6.93;5.80;;;;;;;;;;5072979;28;20428;-52
2022/04/30 04:35:00;;;;;;;8.57;6.40;;;;;;;;;;5073619;28;20401;-53
2022/04/30 04:37:27;;;;;;;8.30;5.70;;;;;;;;;;5072191;28;20507;-54
2022/04/30 04:39:55;;;;;;;6.80;5.60;;;;;;;;;;5069753;28;20409;-53
2022/04/30 04:42:21;;;;;;;5.18;4.72;;;;;;;;;;5063576;28;20490;-54
2022/04/30 04:44:47;;;;;;;9.15;6.10;;;;;;;;;;5073930;28;20175;-51
2022/04/30 04:47:14;;;;;;;5.53;4.93;;;;;;;;;;5074542;28;20205;-57
2022/04/30 04:49:40;;;;;;;10.10;6.25;;;;;;;;;;5075892;28;20392;-50
2022/04/30 04:52:13;;;;;;;5.07;4.60;;;;;;;;;;5074541;28;20213;-51
2022/04/30 04:54:39;;;;;;;12.90;6.38;;;;;;;;;;5077392;28;20170;-53
2022/04/30 04:57:05;;;;;;;11.07;5.70;;;;;;;;;;5076732;28;20708;-54
2022/04/30 04:59:31;;;;;;;8.38;6.15;;;;;;;;;;5076460;28;20487;-51
2022/04/30 05:01:57;;;;;;;13.52;6.68;;;;;;;;;;5075059;28;20250;-53
2022/04/30 05:04:24;;;;;;;10.67;5.00;;;;;;;;;;5074901;28;20163;-52
2022/04/30 05:06:51;;;;;;;7.85;6.13;;;;;;;;;;5076543;28;20964;-50
2022/04/30 05:09:17;;;;;;;7.90;6.10;;;;;;;;;;5074644;28;20170;-54
2022/04/30 05:11:43;;;;;;;6.60;5.40;;;;;;;;;;5075009;28;20419;-51
2022/04/30 05:14:10;;;;;;;9.40;5.57;;;;;;;;;;5074239;28;20404;-51
2022/04/30 05:16:36;;;;;;;7.80;5.27;;;;;;;;;;5073604;28;20408;-52
2022/04/30 05:19:05;;;;;;;9.60;5.67;;;;;;;;;;5076258;28;20473;-51
2022/04/30 05:21:30;;;;;;;5.70;4.70;;;;;;;;;;5074923;28;20412;-50
2022/04/30 05:23:56;;;;;;;8.40;5.60;;;;;;;;;;5075074;28;20401;-50
2022/04/30 05:26:22;;;;;;;7.60;5.70;;;;;;;;;;5073275;28;20475;-50
2022/04/30 05:28:48;;;;;;;8.97;6.10;;;;;;;;;;5073409;28;20400;-50
2022/04/30 05:31:14;;;;;;;7.37;6.67;;;;;;;;;;5072359;28;20406;-51
2022/04/30 05:33:40;;;;;;;11.43;6.20;;;;;;;;;;5072889;28;20420;-52
2022/04/30 05:36:06;;;;;;;9.53;5.47;;;;;;;;;;5072898;28;20412;-51
2022/04/30 05:38:32;;;;;;;7.57;5.70;;;;;;;;;;5072800;28;20410;-52
2022/04/30 05:40:58;;;;;;;8.03;5.90;;;;;;;;;;5072485;28;20466;-52
2022/04/30 05:43:24;;;;;;;7.40;5.57;;;;;;;;;;5072803;28;20512;-51
2022/04/30 05:45:50;;;;;;;7.57;5.70;;;;;;;;;;5072826;28;20490;-51
2022/04/30 05:48:16;;;;;;;6.60;5.80;;;;;;;;;;5072554;28;20444;-51
2022/04/30 05:50:42;;;;;;;8.97;6.10;;;;;;;;;;5072767;28;20404;-51
2022/04/30 05:53:08;;;;;;;8.00;6.20;;;;;;;;;;5071862;28;20459;-52
2022/04/30 05:55:34;;;;;;;7.13;5.50;;;;;;;;;;5072502;28;20432;-51
2022/04/30 05:58:00;;;;;;;13.97;6.50;;;;;;;;;;5072601;28;20402;-53
2022/04/30 06:00:26;;;;;;;6.33;5.33;;;;;;;;;;5072436;28;20504;-53
2022/04/30 06:02:52;;;;;;;7.20;5.20;;;;;;;;;;5071674;28;20459;-52
2022/04/30 06:05:18;;;;;;;6.70;4.90;;;;;;;;;;5072519;28;20409;-51
2022/04/30 06:07:44;;;;;;;9.20;5.40;;;;;;;;;;5072166;28;20452;-51
2022/04/30 06:10:10;;;;;;;6.37;5.03;;;;;;;;;;5072219;28;20483;-52
2022/04/30 06:12:36;;;;;;;9.37;6.37;;;;;;;;;;5071613;28;20425;-51
2022/04/30 06:15:02;;;;;;;12.40;5.90;;;;;;;;;;5072284;28;20406;-51
2022/04/30 06:17:28;;;;;;;8.67;6.40;;;;;;;;;;5070850;28;20450;-51
2022/04/30 06:19:54;;;;;;;8.20;5.50;;;;;;;;;;5071760;28;20435;-52
2022/04/30 06:22:20;;;;;;;8.50;5.60;;;;;;;;;;5070266;28;20956;-52
2022/04/30 06:24:46;;;;;;;7.00;5.63;;;;;;;;;;5072277;28;20491;-52
2022/04/30 06:27:12;;;;;;;12.03;5.40;;;;;;;;;;5071923;28;20446;-53
2022/04/30 06:29:38;;;;;;;7.77;4.97;;;;;;;;;;5071948;28;20393;-52
2022/04/30 06:32:05;;;;;;;9.90;5.27;;;;;;;;;;5071194;28;20876;-52
2022/04/30 06:34:31;;;;;;;6.50;5.40;;;;;;;;;;5071346;28;20417;-52
2022/04/30 06:36:57;;;;;;;8.90;5.13;;;;;;;;;;5071792;28;20893;-53
2022/04/30 06:39:22;;;;;;;12.40;4.80;;;;;;;;;;5071868;28;20491;-52
2022/04/30 06:41:48;;;;;;;5.17;4.40;;;;;;;;;;5062882;28;20441;-53
2022/04/30 06:44:14;;;;;;;6.50;4.97;;;;;;;;;;5051797;28;20400;-52
2022/04/30 06:46:40;;;;;;;6.43;5.40;;;;;;;;;;5051652;28;20807;-52
2022/04/30 06:49:06;;;;;;;8.03;5.37;;;;;;;;;;5051873;28;20409;-52
2022/04/30 06:51:32;;;;;;;9.43;5.00;;;;;;;;;;5050841;28;20930;-53
2022/04/30 06:59:28;;;;;;;5.20;4.63;;;;;;;;;;5051629;28;20400;-52
2022/04/30 07:02:01;;;;;;;5.43;4.90;;;;;;;;;;5050825;28;20520;-53
2022/04/30 07:04:29;;;;;;;8.83;5.20;;;;;;;;;;5051577;28;20450;-52
2022/04/30 07:06:55;;;;;;;9.73;5.70;;;;;;;;;;5051500;28;21043;-53
2022/04/30 07:09:21;;;;;;;5.57;4.90;;;;;;;;;;5051427;28;20407;-52
2022/04/30 07:11:48;;;;;;;11.67;6.03;;;;;;;;;;5050771;28;20455;-53
2022/04/30 07:14:14;;;;;;;7.50;5.97;;;;;;;;;;5051517;28;20451;-52
2022/04/30 07:16:40;;;;;;;12.00;6.13;;;;;;;;;;5062935;28;20416;-52
2022/04/30 07:19:06;;;;;;;5.73;5.13;;;;;;;;;;5071314;28;20432;-53
2022/04/30 07:21:32;;;;;;;15.23;6.87;;;;;;;;;;5070663;28;20438;-53
2022/04/30 07:23:58;;;;;;;10.80;6.17;;;;;;;;;;5070471;28;20412;-53
2022/04/30 07:26:24;;;;;;;9.73;5.90;;;;;;;;;;5071529;28;20416;-53
2022/04/30 07:28:51;;;;;;;6.70;5.80;;;;;;;;;;5071516;28;20809;-53
2022/04/30 07:31:18;;;;;;;9.57;6.37;;;;;;;;;;5069872;28;20393;-53
2022/04/30 07:33:44;;;;;;;6.80;5.53;;;;;;;;;;5070617;28;20428;-54
2022/04/30 07:36:10;;;;;;;9.23;6.23;;;;;;;;;;5063361;28;20424;-52
2022/04/30 07:38:36;;;;;;;9.13;5.80;;;;;;;;;;5071295;28;20419;-52
2022/04/30 07:41:02;;;;;;;11.57;7.97;;;;;;;;;;5070515;28;20484;-51
2022/04/30 07:43:28;;;;;;;9.37;6.27;;;;;;;;;;5069851;28;20516;-52
2022/04/30 07:45:54;;;;;;;9.00;5.70;;;;;;;;;;5070974;28;20412;-53
2022/04/30 07:48:20;;;;;;;7.07;6.37;;;;;;;;;;5070985;28;20449;-51
2022/04/30 07:50:46;;;;;;;5.70;5.07;;;;;;;;;;5072300;28;20382;-53
2022/04/30 07:53:14;;;;;;;5.10;4.60;;;;;;;;;;5074829;28;20460;-51
2022/04/30 07:55:40;;;;;;;5.33;4.80;;;;;;;;;;5074870;28;20955;-51
2022/04/30 07:58:06;;;;;;;5.60;5.00;;;;;;;;;;5074765;28;20415;-51
2022/04/30 08:00:32;;;;;;;6.27;4.80;;;;;;;;;;5074630;28;20400;-51
2022/04/30 08:02:59;;;;;;;6.83;4.53;;;;;;;;;;5074157;28;20423;-51
2022/04/30 08:05:26;;;;;;;7.60;4.83;;;;;;;;;;5074691;28;20905;-51
2022/04/30 08:07:52;;;;;;;8.13;5.10;;;;;;;;;;5074523;28;20454;-54
2022/04/30 08:10:18;;;;;;;14.73;8.47;;;;;;;;;;5074543;28;20400;-51
2022/04/30 08:12:44;;;;;;;9.33;8.00;;;;;;;;;;5074124;28;20417;-50
2022/04/30 08:15:10;;;;;;;10.60;7.87;;;;;;;;;;5074449;28;20401;-51
2022/04/30 08:17:38;;;;;;;9.13;8.10;;;;;;;;;;5074455;28;20410;-51
2022/04/30 08:20:05;;;;;;;10.40;7.20;;;;;;;;;;5074424;28;20493;-51
2022/04/30 08:22:31;;;;;;;9.53;8.13;;;;;;;;;;5073851;28;20426;-51
2022/04/30 08:24:57;;;;;;;12.80;7.30;;;;;;;;;;5074392;28;20408;-51
2022/04/30 08:27:23;;;;;;;7.40;6.40;;;;;;;;;;5074354;28;20447;-51
2022/04/30 08:29:49;;;;;;;8.10;5.90;;;;;;;;;;5074040;28;20490;-52
2022/04/30 08:32:15;;;;;;;7.10;4.90;;;;;;;;;;5072339;28;20427;-52
2022/04/30 08:34:42;;;;;;;7.07;4.90;;;;;;;;;;5074160;28;20425;-52
2022/04/30 08:37:08;;;;;;;5.33;3.83;;;;;;;;;;5074106;28;20404;-51
2022/04/30 08:39:34;;;;;;;5.83;4.37;;;;;;;;;;5073974;28;20400;-51
2022/04/30 08:42:00;;;;;;;8.13;4.30;;;;;;;;;;5073215;28;20432;-51
2022/04/30 08:44:26;;;;;;;7.37;3.87;;;;;;;;;;5073958;28;20529;-51
2022/04/30 08:46:52;;;;;;;4.17;3.20;;;;;;;;;;5073721;28;20445;-51
2022/04/30 08:49:18;;;;;;;5.27;3.93;;;;;;;;;;5073741;28;20420;-52
2022/04/30 08:51:45;;;;;;;5.13;4.50;;;;;;;;;;5073158;28;20455;-51
2022/04/30 08:54:11;;;;;;;4.13;3.73;;;;;;;;;;5073596;28;20430;-53
2022/04/30 08:56:37;;;;;;;7.37;4.20;;;;;;;;;;5073608;28;20916;-50
2022/04/30 08:59:06;;;;;;;4.70;3.70;;;;;;;;;;5073772;28;20407;-51
2022/04/30 09:01:44;;;;;;;4.17;3.83;;;;;;;;;;5072756;28;20390;-53
2022/04/30 09:04:10;;;;;;;3.73;3.43;;;;;;;;;;5073576;28;20396;-51
2022/04/30 09:06:44;;;;;;;4.50;4.03;;;;;;;;;;5072388;28;20417;-52
2022/04/30 09:09:09;;;;;;;10.03;3.33;;;;;;;;;;5073829;28;20375;-52
2022/04/30 09:11:38;;;;;;;4.50;3.73;;;;;;;;;;5072761;28;20884;-53
2022/04/30 09:14:04;;;;;;;4.67;4.30;;;;;;;;;;5073420;28;20545;-52
2022/04/30 09:16:30;;;;;;;4.20;3.80;;;;;;;;;;5073331;28;20822;-53
2022/04/30 09:19:04;;;;;;;4.23;3.83;;;;;;;;;;5073414;28;20383;-53
2022/04/30 09:21:30;;;;;;;7.73;3.50;;;;;;;;;;5072751;28;20886;-52
2022/04/30 09:24:03;;;;;;;3.57;3.20;;;;;;;;;;5073424;28;20481;-52
2022/04/30 09:26:39;;;;;;;3.33;2.80;;;;;;;;;;5073534;28;20796;-53
2022/04/30 09:29:19;;;;;;;4.33;3.67;;;;;;;;;;5073060;28;20403;-53
2022/04/30 09:31:49;;;;;;;3.13;2.93;;;;;;;;;;5072092;28;20404;-54
2022/04/30 09:39:44;;;;;;;5.70;4.00;;;;;;;;;;5072935;28;20951;-54
2022/04/30 09:42:10;;;;;;;8.60;3.90;;;;;;;;;;5072112;28;20424;-54
2022/04/30 09:44:37;;;;;;;6.20;3.33;;;;;;;;;;5072864;28;20426;-54
2022/04/30 09:47:05;;;;;;;3.73;3.10;;;;;;;;;;5072601;28;20523;-53
2022/04/30 09:55:15;;;;;;;4.43;3.43;;;;;;;;;;5071282;28;20439;-54
2022/04/30 09:57:42;;;;;;;4.00;3.70;;;;;;;;;;5072489;28;20457;-53
2022/04/30 10:00:09;;;;;;;4.40;4.00;;;;;;;;;;5072525;28;20987;-54
2022/04/30 10:02:36;;;;;;;6.27;3.37;;;;;;;;;;5071659;28;20972;-54
2022/04/30 10:05:03;;;;;;;4.47;3.50;;;;;;;;;;5072381;28;20787;-54
2022/04/30 10:07:30;;;;;;;5.40;3.30;;;;;;;;;;5072287;28;20458;-54
2022/04/30 10:10:05;;;;;;;5.17;3.90;;;;;;;;;;5072406;28;20417;-53
2022/04/30 10:12:54;;;;;;;5.40;3.63;;;;;;;;;;5071223;28;20479;-54
2022/04/30 10:15:39;;;;;;;3.67;3.40;;;;;;;;;;5072402;28;21054;-53
2022/04/30 10:18:08;;;;;;;10.20;3.33;;;;;;;;;;5072174;28;20400;-54
2022/04/30 10:20:34;;;;;;;6.13;3.63;;;;;;;;;;5072137;28;20392;-54
2022/04/30 10:23:01;;;;;;;5.93;3.77;;;;;;;;;;5071493;28;20417;-54
2022/04/30 10:25:47;;;;;;;3.40;3.10;;;;;;;;;;5071605;28;21181;-53
2022/04/30 10:28:19;;;;;;;5.20;3.90;;;;;;;;;;5072050;28;20453;-54
2022/04/30 10:30:45;;;;;;;5.60;3.60;;;;;;;;;;5071967;28;20389;-53
2022/04/30 10:33:12;;;;;;;4.23;3.83;;;;;;;;;;5071965;28;20916;-54
2022/04/30 10:35:45;;;;;;;4.97;3.87;;;;;;;;;;5072098;28;20915;-54
2022/04/30 10:38:20;;;;;;;4.27;3.67;;;;;;;;;;5072107;28;20892;-54
2022/04/30 10:40:48;;;;;;;6.43;4.20;;;;;;;;;;5071346;28;20503;-54
2022/04/30 10:43:35;;;;;;;3.97;3.67;;;;;;;;;;5071859;28;20484;-54
2022/04/30 10:46:03;;;;;;;4.87;3.33;;;;;;;;;;5071885;28;20444;-54
2022/04/30 10:48:29;;;;;;;4.87;3.77;;;;;;;;;;5071719;28;20891;-54
2022/04/30 10:51:05;;;;;;;3.33;3.10;;;;;;;;;;5071009;28;20891;-54
2022/04/30 10:53:32;;;;;;;4.10;3.73;;;;;;;;;;5071814;28;20412;-54
2022/04/30 10:56:00;;;;;;;3.80;3.53;;;;;;;;;;5071855;28;20400;-53
2022/04/30 10:58:27;;;;;;;4.17;3.70;;;;;;;;;;5071696;28;20491;-53
2022/04/30 11:00:54;;;;;;;5.70;3.67;;;;;;;;;;5071099;28;20401;-54
2022/04/30 11:03:25;;;;;;;4.27;3.87;;;;;;;;;;5071610;28;20428;-54
2022/04/30 11:05:51;;;;;;;4.70;4.10;;;;;;;;;;5071704;28;20405;-53
2022/04/30 11:08:17;;;;;;;4.30;3.63;;;;;;;;;;5071713;28;20463;-54
2022/04/30 11:10:56;;;;;;;5.07;3.70;;;;;;;;;;5071066;28;20515;-55
2022/04/30 11:13:22;;;;;;;3.83;3.43;;;;;;;;;;5071546;28;20420;-53
2022/04/30 11:15:48;;;;;;;6.77;3.73;;;;;;;;;;5071802;28;20866;-54
2022/04/30 11:18:18;;;;;;;4.00;3.70;;;;;;;;;;5071579;28;20480;-53
2022/04/30 11:20:44;;;;;;;7.43;4.10;;;;;;;;;;5071164;28;20439;-54
2022/04/30 11:23:21;;;;;;;5.13;4.03;;;;;;;;;;5071339;28;20457;-54
2022/04/30 11:25:47;;;;;;;4.00;3.60;;;;;;;;;;5073293;28;20401;-54
2022/04/30 11:28:13;;;;;;;4.00;3.60;;;;;;;;;;5075476;28;20461;-53
2022/04/30 11:30:40;;;;;;;4.77;3.87;;;;;;;;;;5075234;28;20469;-54
2022/04/30 11:33:06;;;;;;;5.40;4.00;;;;;;;;;;5074502;28;20460;-54
2022/04/30 11:35:32;;;;;;;4.47;3.80;;;;;;;;;;5075354;28;20410;-54
2022/04/30 11:37:58;;;;;;;4.33;3.93;;;;;;;;;;5075257;28;20444;-54
2022/04/30 11:40:27;;;;;;;4.33;3.60;;;;;;;;;;5075193;28;20401;-54
2022/04/30 11:42:56;;;;;;;7.57;3.90;;;;;;;;;;5074397;28;20416;-53
2022/04/30 11:45:29;;;;;;;4.13;3.40;;;;;;;;;;5075155;28;20410;-54
2022/04/30 11:47:58;;;;;;;3.97;3.50;;;;;;;;;;5074979;28;20480;-53
2022/04/30 11:50:25;;;;;;;4.50;4.10;;;;;;;;;;5074912;28;20769;-54
2022/04/30 11:52:51;;;;;;;4.63;4.20;;;;;;;;;;5074194;28;20443;-54
2022/04/30 11:55:20;;;;;;;4.00;3.50;;;;;;;;;;5074962;28;20815;-53
2022/04/30 11:57:46;;;;;;;5.17;3.87;;;;;;;;;;5074768;28;20491;-53
2022/04/30 12:00:12;;;;;;;4.50;4.20;;;;;;;;;;5074778;28;20409;-54
2022/04/30 12:02:40;;;;;;;5.33;4.30;;;;;;;;;;5073877;28;20435;-54
2022/04/30 12:05:06;;;;;;;4.53;3.93;;;;;;;;;;5074699;28;20405;-53
2022/04/30 12:07:36;;;;;;;6.17;4.43;;;;;;;;;;5074623;28;20481;-53
2022/04/30 12:10:02;;;;;;;5.07;4.40;;;;;;;;;;5074585;28;20959;-53
2022/04/30 12:12:29;;;;;;;4.33;4.00;;;;;;;;;;5073958;28;20896;-54
2022/04/30 12:14:56;;;;;;;6.13;4.40;;;;;;;;;;5074519;28;20479;-54
2022/04/30 12:17:32;;;;;;;5.00;4.40;;;;;;;;;;5074639;28;20412;-54
2022/04/30 12:26:05;;;;;;;5.30;4.00;;;;;;;;;;5074831;28;20403;-53
2022/04/30 12:28:41;;;;;;;3.90;3.60;;;;;;;;;;5074241;28;20459;-54
2022/04/30 12:31:10;;;;;;;6.53;4.90;;;;;;;;;;5073794;28;20427;-54
2022/04/30 12:33:42;;;;;;;3.90;3.60;;;;;;;;;;5074171;28;20475;-53
2022/04/30 12:36:11;;;;;;;4.83;4.43;;;;;;;;;;5073905;28;20424;-53
2022/04/30 12:38:37;;;;;;;8.67;4.07;;;;;;;;;;5074105;28;20406;-53
2022/04/30 12:41:06;;;;;;;4.20;3.90;;;;;;;;;;5073503;28;20936;-54
2022/04/30 12:43:36;;;;;;;4.27;3.87;;;;;;;;;;5074026;28;20909;-53
2022/04/30 12:46:02;;;;;;;7.03;4.37;;;;;;;;;;5073944;28;20402;-53
2022/04/30 12:48:28;;;;;;;4.13;3.70;;;;;;;;;;5073843;28;20519;-54
2022/04/30 12:50:55;;;;;;;4.47;4.13;;;;;;;;;;5073258;28;20454;-54
2022/04/30 12:53:22;;;;;;;6.67;3.80;;;;;;;;;;5073843;28;20435;-54
2022/04/30 12:55:50;;;;;;;3.30;3.10;;;;;;;;;;5073696;28;20454;-54
2022/04/30 12:58:16;;;;;;;6.10;3.70;;;;;;;;;;5073638;28;20789;-54
2022/04/30 13:00:44;;;;;;;7.47;3.50;;;;;;;;;;5073528;28;20399;-54
2022/04/30 13:03:10;;;;;;;2.97;2.77;;;;;;;;;;5073424;28;20981;-54
2022/04/30 13:05:37;;;;;;;3.70;3.40;;;;;;;;;;5073584;28;20416;-54
2022/04/30 13:08:03;;;;;;;3.83;3.53;;;;;;;;;;5073463;28;20459;-53
2022/04/30 13:13:32;;;;;;;4.30;3.93;;;;;;;;;;5073351;28;20411;-54
2022/04/30 13:16:08;;;;;;;3.60;3.37;;;;;;;;;;5073423;28;20454;-54
2022/04/30 13:18:34;;;;;;;3.73;3.43;;;;;;;;;;5073332;28;20514;-54
2022/04/30 13:21:02;;;;;;;3.47;3.17;;;;;;;;;;5071032;28;20487;-54
2022/04/30 13:23:29;;;;;;;4.03;3.63;;;;;;;;;;5073131;28;20422;-54
2022/04/30 13:25:55;;;;;;;3.10;2.90;;;;;;;;;;5073180;28;20773;-53
2022/04/30 13:28:20;;;;;;;3.77;3.20;;;;;;;;;;5072946;28;20874;-54
2022/04/30 13:30:46;;;;;;;3.33;3.03;;;;;;;;;;5072473;28;20426;-53
2022/04/30 13:33:12;;;;;;;3.80;3.17;;;;;;;;;;5072904;28;20507;-54
2022/04/30 13:35:39;;;;;;;3.57;3.27;;;;;;;;;;5072953;28;20887;-54
2022/04/30 13:38:05;;;;;;;4.33;3.43;;;;;;;;;;5072942;28;20849;-53
2022/04/30 13:40:31;;;;;;;4.37;3.27;;;;;;;;;;5072828;28;20403;-54
2022/04/30 13:42:57;;;;;;;4.07;3.37;;;;;;;;;;5071980;28;20792;-54
2022/04/30 13:45:23;;;;;;;3.30;3.00;;;;;;;;;;5072699;28;20406;-54
2022/04/30 13:47:50;;;;;;;3.97;3.67;;;;;;;;;;5071907;28;20451;-54
2022/04/30 13:50:17;;;;;;;4.20;3.90;;;;;;;;;;5072542;28;20527;-54
2022/04/30 13:52:43;;;;;;;3.50;3.30;;;;;;;;;;5071923;28;20436;-54
2022/04/30 13:55:09;;;;;;;3.90;3.40;;;;;;;;;;5072622;28;20400;-54
2022/04/30 13:57:36;;;;;;;4.90;3.43;;;;;;;;;;5072559;28;20484;-53
2022/04/30 14:00:04;;;;;;;3.57;3.37;;;;;;;;;;5072436;28;20406;-54
2022/04/30 14:02:30;;;;;;;5.60;3.70;;;;;;;;;;5069347;28;20544;-54
2022/04/30 14:04:57;;;;;;;4.47;4.07;;;;;;;;;;5071626;28;20845;-54
2022/04/30 14:07:23;;;;;;;3.97;3.57;;;;;;;;;;5072332;28;20479;-54
2022/04/30 14:09:49;;;;;;;4.43;3.30;;;;;;;;;;5071537;28;20393;-54
2022/04/30 14:12:17;;;;;;;3.13;2.93;;;;;;;;;;5071683;28;20492;-54
2022/04/30 14:14:58;;;;;;;3.30;3.00;;;;;;;;;;5072289;28;20749;-54
2022/04/30 14:20:13;;;;;;;5.27;3.20;;;;;;;;;;5072328;28;20937;-54
2022/04/30 14:22:39;;;;;;;3.23;3.03;;;;;;;;;;5071502;28;20801;-54
2022/04/30 14:25:09;;;;;;;4.77;3.23;;;;;;;;;;5072201;28;20419;-54
2022/04/30 14:27:37;;;;;;;3.93;3.50;;;;;;;;;;5071889;28;20539;-54
2022/04/30 14:30:03;;;;;;;3.27;2.97;;;;;;;;;;5071852;28;20846;-54
2022/04/30 14:32:29;;;;;;;3.47;3.17;;;;;;;;;;5071375;28;20454;-54
2022/04/30 14:34:56;;;;;;;5.80;3.20;;;;;;;;;;5072083;28;20437;-54
2022/04/30 14:37:23;;;;;;;4.97;3.20;;;;;;;;;;5072038;28;20402;-53
2022/04/30 14:39:49;;;;;;;3.10;2.93;;;;;;;;;;5072073;28;20405;-54
2022/04/30 14:42:15;;;;;;;3.67;2.93;;;;;;;;;;5071231;28;20554;-54
2022/04/30 14:44:42;;;;;;;4.00;3.57;;;;;;;;;;5071915;28;20379;-53
2022/04/30 14:47:08;;;;;;;4.43;4.00;;;;;;;;;;5071806;28;20792;-54
2022/04/30 14:49:35;;;;;;;3.67;3.37;;;;;;;;;;5071850;28;20843;-54
2022/04/30 14:52:01;;;;;;;4.90;3.00;;;;;;;;;;5071155;28;20439;-54
2022/04/30 14:54:27;;;;;;;3.57;3.27;;;;;;;;;;5071857;28;20400;-54
2022/04/30 14:56:53;;;;;;;3.80;3.30;;;;;;;;;;5071637;28;20382;-53
2022/04/30 14:59:19;;;;;;;4.00;3.20;;;;;;;;;;5073756;28;20498;-54
2022/04/30 15:01:46;;;;;;;5.57;3.00;;;;;;;;;;5077726;28;20880;-54
2022/04/30 15:04:12;;;;;;;3.33;3.10;;;;;;;;;;5078429;28;20415;-55
2022/04/30 15:06:38;;;;;;;3.53;2.50;;;;;;;;;;5078295;28;20396;-54
2022/04/30 15:09:04;;;;;;;3.10;2.90;;;;;;;;;;5078254;28;20422;-54
2022/04/30 15:11:30;;;;;;;3.10;2.90;;;;;;;;;;5077669;28;20415;-53
2022/04/30 15:13:56;;;;;;;4.07;3.17;;;;;;;;;;5078261;28;20404;-54
2022/04/30 15:16:23;;;;;;;2.70;2.50;;;;;;;;;;5078367;28;20404;-53
2022/04/30 15:18:49;;;;;;;8.17;6.63;;;;;;;;;;5078240;28;20408;-54
2022/04/30 15:21:15;;;;;;;3.50;3.20;;;;;;;;;;5077683;28;20411;-54
2022/04/30 15:23:41;;;;;;;4.60;2.90;;;;;;;;;;5078142;28;20422;-54
2022/04/30 15:26:07;;;;;;;3.77;2.37;;;;;;;;;;5078542;28;20425;-54
2022/04/30 15:28:33;;;;;;;2.57;2.37;;;;;;;;;;5078120;28;20480;-54
2022/04/30 15:30:59;;;;;;;3.10;2.90;;;;;;;;;;5077612;28;20953;-53
2022/04/30 15:33:25;;;;;;;4.13;2.40;;;;;;;;;;5078123;28;20978;-53